Flight Track Log - Related Links

Times and Time Zones

All times are in EDT time to prevent confusion due to time zone crossing. See the N12SN flight status page for this flight to view local times or setup timezone preferences in your user account.

Time Position Orientation Groundspeed Altitude Reporting Facility
EDT Latitude Longitude Course Direction KTS MPH feet Rate Location/Type
Fri 06:46:13 AM 45.0936 -95.0397 91° East 151 174 3,100  Level Minneapolis Center
Fri 06:47:14 AM 45.0931 -94.9750 91° East 165 190 4,400 1,190 Climbing Minneapolis Center
Fri 06:48:14 AM 45.0953 -94.9131 87° East 160 184 5,500 1,041 Climbing Minneapolis Center
Fri 06:49:15 AM 45.0983 -94.8475 86° East 165 190 6,500 992 Climbing Minneapolis Center
Fri 06:50:15 AM 45.1028 -94.7831 84° East 165 190 7,500 1,000 Climbing Minneapolis Center
Fri 06:51:15 AM 45.1064 -94.7139 86° East 172 198 8,500 744 Climbing Minneapolis Center
Fri 06:52:16 AM 45.1119 -94.6431 84° East 177 204 9,000 248 Climbing Minneapolis Center
Fri 06:53:16 AM 45.1175 -94.5594 85° East 204 235 9,000  Level Minneapolis Center
Fri 06:54:17 AM 45.1214 -94.4747 86° East 215 247 9,000  Level Minneapolis Center
Fri 06:55:17 AM 45.1250 -94.3892 87° East 218 251 9,000  Level Minneapolis Center
Fri 06:56:18 AM 45.1336 -94.2906 83° East 213 245 9,000 50 Level Minneapolis Center
Fri 06:57:18 AM 45.1367 -94.2047 87° East 216 249 9,100 50 Climbing Minneapolis Center
Fri 06:58:18 AM 45.1375 -94.1194 89° East 219 252 9,100  Level Minneapolis Center
Fri 06:59:19 AM 45.1386 -94.0344 89° East 219 252 9,100 -50 Level Minneapolis Center
Fri 07:00:19 AM 45.1406 -93.9486 88° East 219 252 9,000 -50 Descending Minneapolis Center
Fri 07:01:20 AM 45.1411 -93.8625 89° East 220 253 9,000  Level Minneapolis Center
Fri 07:02:20 AM 45.1422 -93.7783 89° East 217 250 9,000  Level Minneapolis Center
Fri 07:03:21 AM 45.1433 -93.6928 89° East 217 250 9,000  Level Minneapolis Center
Fri 07:04:21 AM 45.1442 -93.6072 89° East 218 251 9,000  Level Minneapolis Center
Fri 07:05:21 AM 45.1447 -93.5217 89° East 218 251 9,000  Level Minneapolis Center
Fri 07:06:22 AM 45.1456 -93.4358 89° East 219 252 9,000 50 Level Minneapolis Center
Fri 07:07:22 AM 45.1439 -93.3500 92° East 220 253 9,100  Climbing Minneapolis Center
Fri 07:08:23 AM 45.1269 -93.2664 106° East 220 253 9,000  Descending Minneapolis Center
Fri 07:09:23 AM 45.1128 -93.1833 104° East 217 250 9,100  Climbing Minneapolis Center
Fri 07:10:24 AM 45.0969 -93.1008 105° East 217 250 9,000 -50 Descending Minneapolis Center
Fri 07:11:24 AM 45.0822 -93.0189 104° East 215 247 9,000 50 Level Minneapolis Center
Fri 07:12:25 AM 45.0678 -92.9375 104° East 214 246 9,100  Climbing Minneapolis Center
Fri 07:13:26 AM 45.0533 -92.8561 104° East 214 246 9,000 -99 Descending Minneapolis Center
Fri 07:14:26 AM 45.0392 -92.7744 104° East 214 246 8,900 -50 Descending Minneapolis Center
Fri 07:15:27 AM 45.0233 -92.6936 105° East 214 246 8,900  Level Minneapolis Center
Fri 07:16:40 AM 45.0086 -92.6136 105° East 210 242 8,900  Level Minneapolis Center
Fri 07:17:41 AM 44.9906 -92.5169 105° East 212 244 8,900 50 Level Minneapolis Center
Fri 07:18:41 AM 44.9786 -92.4519 105° East 214 246 9,000 50 Climbing Minneapolis Center
Fri 07:19:42 AM 44.9686 -92.3539 98° East 211 243 9,000  Level Minneapolis Center
Fri 07:20:43 AM 44.9564 -92.2700 102° East 217 250 9,000  Level Minneapolis Center
Fri 07:21:44 AM 44.9422 -92.1719 102° East 214 246 9,000  Level Minneapolis Center
Fri 07:22:44 AM 44.9292 -92.0886 102° East 217 250 9,000  Level Minneapolis Center
Fri 07:23:45 AM 44.9169 -92.0047 102° East 219 252 9,000  Level Minneapolis Center
Fri 07:24:46 AM 44.9056 -91.9242 101° East 213 245 9,000  Level Minneapolis Center
Fri 07:25:47 AM 44.8906 -91.8436 105° East 213 245 9,000  Level Minneapolis Center
Fri 07:26:47 AM 44.8728 -91.7633 107° East 214 246 9,000  Level Minneapolis Center
Fri 07:27:48 AM 44.8572 -91.6817 105° East 215 247 9,000  Level Minneapolis Center
Fri 07:28:49 AM 44.8364 -91.5914 108° East 222 255 9,000  Level Minneapolis Center
Fri 07:29:50 AM 44.8192 -91.5139 107° East 217 250 9,000  Level Minneapolis Center
Fri 07:30:51 AM 44.8019 -91.4267 106° East 222 255 9,000  Level Minneapolis Center
Fri 07:31:52 AM 44.7864 -91.3397 104° East 220 253 9,000  Level Minneapolis Center
Fri 07:32:52 AM 44.7703 -91.2594 106° East 222 255 9,000  Level Minneapolis Center
Fri 07:33:53 AM 44.7544 -91.1728 104° East 219 252 9,000  Level Minneapolis Center
Fri 07:34:54 AM 44.7358 -91.0922 108° East 224 258 9,000  Level Minneapolis Center
Fri 07:35:55 AM 44.7139 -91.0011 109° East 234 269 9,000  Level Minneapolis Center
Fri 07:36:56 AM 44.6922 -90.9131 109° East 231 266 9,000  Level Minneapolis Center
Fri 07:37:57 AM 44.6722 -90.8339 110° East 225 259 9,000  Level Minneapolis Center
Fri 07:38:58 AM 44.6497 -90.7492 110° East 223 257 9,000  Level Minneapolis Center
Fri 07:39:59 AM 44.6303 -90.6725 110° East 217 250 9,000  Level Minneapolis Center
Fri 07:41:00 AM 44.6122 -90.5858 106° East 222 255 9,000  Level Minneapolis Center
Fri 07:42:01 AM 44.5939 -90.4983 106° East 224 258 9,000  Level Minneapolis Center
Fri 07:43:02 AM 44.5772 -90.4147 106° East 228 262 9,000  Level Minneapolis Center
Fri 07:44:03 AM 44.5589 -90.3250 106° East 228 262 9,000  Level Minneapolis Center
Fri 07:45:05 AM 44.5403 -90.2378 107° East 224 258 9,000  Level Minneapolis Center
Fri 07:46:06 AM 44.5239 -90.1575 106° East 223 257 9,000  Level Minneapolis Center
Fri 07:47:07 AM 44.5064 -90.0700 106° East 223 257 9,000  Level Minneapolis Center
Fri 07:48:08 AM 44.4869 -89.9828 107° East 224 258 9,000  Level Minneapolis Center
Fri 07:49:09 AM 44.4739 -89.9167 105° East 220 253 9,000  Level Minneapolis Center
Fri 07:50:10 AM 44.4533 -89.8197 107° East 217 250 9,000  Level Minneapolis Center
Fri 07:51:11 AM 44.4353 -89.7364 107° East 214 246 9,000  Level Minneapolis Center
Fri 07:52:13 AM 44.4194 -89.6578 106° East 218 251 9,000  Level Minneapolis Center
Fri 07:53:14 AM 44.4008 -89.5736 107° East 216 249 9,000  Level Minneapolis Center
Fri 07:54:27 AM 44.3825 -89.4869 106° East 223 257 9,000  Level Minneapolis Center
Fri 07:55:28 AM 44.3611 -89.3894 107° East 218 251 9,000  Level Minneapolis Center
Fri 07:56:30 AM 44.3433 -89.3097 107° East 222 255 9,000 -49 Level Minneapolis Center
Fri 07:57:31 AM 44.3250 -89.2236 107° East 222 255 8,900 -49 Descending Minneapolis Center
Fri 07:58:32 AM 44.3061 -89.1358 107° East 226 260 8,900 49 Level Minneapolis Center
Fri 07:59:33 AM 44.2878 -89.0558 108° East 219 252 9,000 49 Climbing Minneapolis Center
Fri 08:00:35 AM 44.2700 -88.9767 107° East 215 247 9,000  Level Minneapolis Center
Fri 08:00:59 AM 44.2639 -88.9517 109° East 213 245 9,000  Level Minneapolis Center
Fri 08:02:00 AM 44.2461 -88.8717 107° East 213 245 9,000  Level Minneapolis Center
Fri 08:03:02 AM 44.2283 -88.7897 107° East 217 250 9,000  Level Minneapolis Center
Fri 08:04:03 AM 44.2075 -88.6931 107° East 221 254 9,000  Level Minneapolis Center
Fri 08:05:16 AM 44.1853 -88.5975 108° East 222 255 9,000  Level Minneapolis Center
Fri 08:06:18 AM 44.1703 -88.5306 107° East 220 253 9,000  Level Minneapolis Center
Fri 08:07:19 AM 44.1489 -88.4333 107° East 222 255 9,000  Level Minneapolis Center
Fri 08:08:20 AM 44.1297 -88.3506 108° East 224 258 9,000  Level Minneapolis Center
Fri 08:09:22 AM 44.1103 -88.2656 108° East 228 262 9,000  Level Minneapolis Center
Fri 08:10:23 AM 44.0908 -88.1828 108° East 226 260 9,000 443 Level Minneapolis Center
Fri 08:11:24 AM 44.0706 -88.0894 107° East 218 251 9,900 878 Climbing Minneapolis Center
Fri 08:12:26 AM 44.0550 -88.0194 107° East 196 226 10,800 537 Climbing Minneapolis Center
Fri 08:13:27 AM 44.0372 -87.9456 108° East 200 230 11,000 98 Climbing Minneapolis Center
Fri 08:14:29 AM 44.0189 -87.8633 107° East 215 247 11,000  Level Minneapolis Center
Fri 08:15:30 AM 43.9978 -87.7811 110° East 224 258 11,000  Level Minneapolis Center
Fri 08:16:32 AM 43.9794 -87.6983 107° East 225 259 11,000  Level Minneapolis Center
Fri 08:17:33 AM 43.9603 -87.6158 108° East 225 259 11,000 -48 Level Minneapolis Center
Fri 08:18:36 AM 43.9400 -87.5333 109° East 226 260 10,900 -48 Descending Minneapolis Center
Fri 08:19:37 AM 43.9175 -87.4364 108° East 227 261 10,900  Level Minneapolis Center
Fri 08:20:39 AM 43.8972 -87.3544 109° East 225 259 10,900  Level Minneapolis Center
Fri 08:21:53 AM 43.8742 -87.2575 108° East 226 260 10,900  Level Minneapolis Center
Fri 08:22:54 AM 43.8539 -87.1725 108° East 227 261 10,900  Level Minneapolis Center
Fri 08:23:56 AM 43.8336 -87.0878 108° East 231 266 10,900  Level Minneapolis Center
Fri 08:24:57 AM 43.8122 -87.0036 109° East 231 266 10,900  Level Minneapolis Center
Fri 08:25:59 AM 43.7919 -86.9178 108° East 235 270 10,900  Level Minneapolis Center
Fri 08:27:01 AM 43.7714 -86.8333 109° East 233 268 10,900  Level Minneapolis Center
Fri 08:28:02 AM 43.7475 -86.7333 108° East 229 264 10,900  Level Minneapolis Center
Fri 08:29:04 AM 43.7275 -86.6506 108° East 227 261 10,900  Level Minneapolis Center
Fri 08:30:05 AM 43.7058 -86.5697 110° East 225 259 10,900 49 Level Minneapolis Center
Fri 08:31:07 AM 43.6867 -86.4869 108° East 226 260 11,000 49 Climbing Minneapolis Center
Fri 08:32:08 AM 43.6664 -86.4067 109° East 222 255 11,000  Level Minneapolis Center
Fri 08:33:10 AM 43.6456 -86.3228 109° East 229 264 11,000  Level Minneapolis Center
Fri 08:34:12 AM 43.6261 -86.2425 108° East 224 258 11,000  Level Minneapolis Center
Fri 08:34:43 AM 43.6139 -86.1953 110° East 222 255 11,000  Level Chicago Center
Fri 08:35:45 AM 43.5942 -86.1133 108° East 223 257 11,000  Level Chicago Center
Fri 08:36:46 AM 43.5728 -86.0325 110° East 224 258 11,000  Level Chicago Center
Fri 08:37:49 AM 43.5528 -85.9517 109° East 222 255 11,000  Level Chicago Center
Fri 08:38:50 AM 43.5325 -85.8706 109° East 223 257 11,000  Level Chicago Center
Fri 08:39:19 AM 43.5197 -85.8219 110° East 222 255 11,000  Level Minneapolis Center
Fri 08:40:21 AM 43.4989 -85.7411 110° East 223 257 11,000  Level Minneapolis Center
Fri 08:41:22 AM 43.4786 -85.6625 110° East 220 253 11,000  Level Minneapolis Center
Fri 08:42:24 AM 43.4578 -85.5825 110° East 221 254 11,000  Level Minneapolis Center
Fri 08:43:26 AM 43.4381 -85.5025 109° East 221 254 11,000  Level Minneapolis Center
Fri 08:44:27 AM 43.4169 -85.4233 110° East 220 253 11,000  Level Minneapolis Center
Fri 08:45:53 AM 43.3844 -85.2978 110° East 218 251 11,000  Level Minneapolis Center
Fri 08:46:21 AM 43.3722 -85.2619 115° Southeast 216 249 11,000  Level Cleveland Center
Fri 08:47:21 AM 43.3544 -85.1833 107° East 216 249 11,000  Level Cleveland Center

Login

Don't have an account? Register now (free) for customized features, flight alerts, and more!